sensor_id;sensor_type;location;lat;lon;timestamp;P1;durP1;ratioP1;P2;durP2;ratioP2
12224;SDS011;6175;50.956;11.064;2022-09-09T07:27:36;2.67;;;1.10;;
12224;SDS011;6175;50.956;11.064;2022-09-09T07:30:03;3.15;;;1.27;;
12224;SDS011;6175;50.956;11.064;2022-09-09T07:32:31;2.85;;;1.10;;
12224;SDS011;6175;50.956;11.064;2022-09-09T07:34:59;1.15;;;1.00;;
12224;SDS011;6175;50.956;11.064;2022-09-09T07:37:25;2.15;;;1.30;;
12224;SDS011;6175;50.956;11.064;2022-09-09T07:39:52;2.78;;;1.13;;
12224;SDS011;6175;50.956;11.064;2022-09-09T07:42:19;2.08;;;1.40;;
12224;SDS011;6175;50.956;11.064;2022-09-09T07:44:48;1.63;;;1.00;;
12224;SDS011;6175;50.956;11.064;2022-09-09T07:47:14;2.25;;;1.00;;
12224;SDS011;6175;50.956;11.064;2022-09-09T07:49:41;3.92;;;1.30;;
12224;SDS011;6175;50.956;11.064;2022-09-09T07:52:08;2.60;;;1.20;;
12224;SDS011;6175;50.956;11.064;2022-09-09T07:54:35;1.80;;;1.10;;
12224;SDS011;6175;50.956;11.064;2022-09-09T07:57:03;2.45;;;1.30;;
12224;SDS011;6175;50.956;11.064;2022-09-09T07:59:29;3.58;;;1.20;;
12224;SDS011;6175;50.956;11.064;2022-09-09T08:01:58;1.50;;;0.90;;
12224;SDS011;6175;50.956;11.064;2022-09-09T08:04:25;3.05;;;1.10;;
12224;SDS011;6175;50.956;11.064;2022-09-09T08:06:54;2.65;;;1.17;;
12224;SDS011;6175;50.956;11.064;2022-09-09T08:09:22;2.47;;;0.90;;
12224;SDS011;6175;50.956;11.064;2022-09-09T08:11:52;3.25;;;1.15;;
12224;SDS011;6175;50.956;11.064;2022-09-09T08:14:19;2.00;;;1.33;;
12224;SDS011;6175;50.956;11.064;2022-09-09T08:16:47;3.33;;;1.40;;
12224;SDS011;6175;50.956;11.064;2022-09-09T08:19:16;1.45;;;1.05;;
12224;SDS011;6175;50.956;11.064;2022-09-09T08:21:43;2.03;;;0.90;;
12224;SDS011;6175;50.956;11.064;2022-09-09T08:24:11;3.75;;;1.10;;
12224;SDS011;6175;50.956;11.064;2022-09-09T08:26:39;3.55;;;1.17;;
12224;SDS011;6175;50.956;11.064;2022-09-09T08:29:08;3.03;;;1.27;;
12224;SDS011;6175;50.956;11.064;2022-09-09T08:31:37;2.50;;;1.15;;
12224;SDS011;6175;50.956;11.064;2022-09-09T08:34:06;2.10;;;1.27;;
12224;SDS011;6175;50.956;11.064;2022-09-09T08:36:35;4.03;;;1.58;;
12224;SDS011;6175;50.956;11.064;2022-09-09T08:39:04;2.30;;;1.20;;
12224;SDS011;6175;50.956;11.064;2022-09-09T08:41:37;2.65;;;1.20;;
12224;SDS011;6175;50.956;11.064;2022-09-09T08:44:29;1.30;;;1.05;;
12224;SDS011;6175;50.956;11.064;2022-09-09T08:47:06;1.92;;;0.85;;
12224;SDS011;6175;50.956;11.064;2022-09-09T08:49:45;2.03;;;1.10;;
12224;SDS011;6175;50.956;11.064;2022-09-09T08:52:25;2.08;;;1.33;;
12224;SDS011;6175;50.956;11.064;2022-09-09T08:54:55;2.67;;;1.45;;
12224;SDS011;6175;50.956;11.064;2022-09-09T08:57:28;1.75;;;1.05;;
12224;SDS011;6175;50.956;11.064;2022-09-09T08:59:58;2.70;;;1.17;;
12224;SDS011;6175;50.956;11.064;2022-09-09T09:02:25;2.20;;;1.10;;
12224;SDS011;6175;50.956;11.064;2022-09-09T09:05:01;1.92;;;1.30;;
12224;SDS011;6175;50.956;11.064;2022-09-09T09:07:41;3.25;;;1.25;;
12224;SDS011;6175;50.956;11.064;2022-09-09T09:10:24;1.70;;;1.20;;
12224;SDS011;6175;50.956;11.064;2022-09-09T09:13:04;1.88;;;1.35;;
12224;SDS011;6175;50.956;11.064;2022-09-09T09:15:39;3.03;;;1.30;;
12224;SDS011;6175;50.956;11.064;2022-09-09T09:18:08;1.52;;;1.17;;
12224;SDS011;6175;50.956;11.064;2022-09-09T09:20:40;3.95;;;1.52;;
12224;SDS011;6175;50.956;11.064;2022-09-09T09:23:16;2.05;;;1.40;;
12224;SDS011;6175;50.956;11.064;2022-09-09T09:25:48;4.13;;;1.40;;
12224;SDS011;6175;50.956;11.064;2022-09-09T09:28:18;3.70;;;1.67;;
12224;SDS011;6175;50.956;11.064;2022-09-09T09:30:52;2.63;;;1.23;;
12224;SDS011;6175;50.956;11.064;2022-09-09T09:33:23;1.92;;;1.40;;
12224;SDS011;6175;50.956;11.064;2022-09-09T09:35:58;1.67;;;1.15;;
12224;SDS011;6175;50.956;11.064;2022-09-09T09:38:27;3.85;;;1.20;;
12224;SDS011;6175;50.956;11.064;2022-09-09T09:40:55;3.00;;;1.60;;
12224;SDS011;6175;50.956;11.064;2022-09-09T09:43:24;5.22;;;1.60;;
12224;SDS011;6175;50.956;11.064;2022-09-09T09:45:53;2.97;;;1.40;;
12224;SDS011;6175;50.956;11.064;2022-09-09T09:48:22;1.55;;;1.00;;
12224;SDS011;6175;50.956;11.064;2022-09-09T09:50:51;1.73;;;0.95;;
12224;SDS011;6175;50.956;11.064;2022-09-09T09:53:22;1.52;;;0.90;;
12224;SDS011;6175;50.956;11.064;2022-09-09T09:56:04;1.73;;;0.88;;
12224;SDS011;6175;50.956;11.064;2022-09-09T09:58:37;1.85;;;1.15;;
12224;SDS011;6175;50.956;11.064;2022-09-09T10:01:18;3.83;;;1.40;;
12224;SDS011;6175;50.956;11.064;2022-09-09T10:03:50;1.98;;;1.15;;
12224;SDS011;6175;50.956;11.064;2022-09-09T10:06:28;1.80;;;1.10;;
12224;SDS011;6175;50.956;11.064;2022-09-09T10:08:55;2.22;;;1.27;;
12224;SDS011;6175;50.956;11.064;2022-09-09T10:11:27;3.65;;;1.17;;
12224;SDS011;6175;50.956;11.064;2022-09-09T10:14:05;3.33;;;1.10;;
12224;SDS011;6175;50.956;11.064;2022-09-09T10:16:45;2.15;;;1.05;;
12224;SDS011;6175;50.956;11.064;2022-09-09T10:19:30;2.20;;;1.08;;
12224;SDS011;6175;50.956;11.064;2022-09-09T10:22:02;2.15;;;0.77;;
12224;SDS011;6175;50.956;11.064;2022-09-09T10:24:44;2.38;;;1.10;;
12224;SDS011;6175;50.956;11.064;2022-09-09T10:27:35;2.45;;;1.20;;
12224;SDS011;6175;50.956;11.064;2022-09-09T10:30:11;1.67;;;1.00;;
12224;SDS011;6175;50.956;11.064;2022-09-09T10:32:46;2.65;;;1.17;;
12224;SDS011;6175;50.956;11.064;2022-09-09T10:35:24;2.50;;;1.08;;
12224;SDS011;6175;50.956;11.064;2022-09-09T10:40:40;2.00;;;1.00;;
12224;SDS011;6175;50.956;11.064;2022-09-09T10:43:19;1.83;;;1.00;;
12224;SDS011;6175;50.956;11.064;2022-09-09T10:45:58;2.42;;;1.20;;
12224;SDS011;6175;50.956;11.064;2022-09-09T10:48:38;1.38;;;1.00;;
12224;SDS011;6175;50.956;11.064;2022-09-09T10:51:21;1.73;;;1.08;;
12224;SDS011;6175;50.956;11.064;2022-09-09T10:53:53;1.80;;;1.08;;
12224;SDS011;6175;50.956;11.064;2022-09-09T10:56:25;2.15;;;1.15;;
12224;SDS011;6175;50.956;11.064;2022-09-09T10:58:56;3.45;;;1.20;;
12224;SDS011;6175;50.956;11.064;2022-09-09T11:01:27;2.30;;;1.10;;
12224;SDS011;6175;50.956;11.064;2022-09-09T11:03:59;2.05;;;1.10;;
12224;SDS011;6175;50.956;11.064;2022-09-09T11:06:31;4.07;;;1.33;;
12224;SDS011;6175;50.956;11.064;2022-09-09T11:09:03;2.85;;;0.90;;
12224;SDS011;6175;50.956;11.064;2022-09-09T11:11:32;2.53;;;1.00;;
12224;SDS011;6175;50.956;11.064;2022-09-09T11:14:08;1.67;;;0.90;;
12224;SDS011;6175;50.956;11.064;2022-09-09T11:16:42;2.95;;;1.13;;
12224;SDS011;6175;50.956;11.064;2022-09-09T11:19:16;1.05;;;0.85;;
12224;SDS011;6175;50.956;11.064;2022-09-09T11:21:49;1.75;;;0.88;;
12224;SDS011;6175;50.956;11.064;2022-09-09T11:24:18;3.47;;;1.15;;
12224;SDS011;6175;50.956;11.064;2022-09-09T11:26:51;1.52;;;1.13;;
12224;SDS011;6175;50.956;11.064;2022-09-09T11:29:40;1.65;;;1.10;;
12224;SDS011;6175;50.956;11.064;2022-09-09T11:32:24;1.80;;;0.90;;
12224;SDS011;6175;50.956;11.064;2022-09-09T11:35:07;2.88;;;1.25;;
12224;SDS011;6175;50.956;11.064;2022-09-09T11:37:53;2.40;;;1.02;;
12224;SDS011;6175;50.956;11.064;2022-09-09T11:40:30;3.22;;;1.25;;
12224;SDS011;6175;50.956;11.064;2022-09-09T11:43:00;1.88;;;0.90;;
12224;SDS011;6175;50.956;11.064;2022-09-09T11:45:32;2.15;;;1.25;;
12224;SDS011;6175;50.956;11.064;2022-09-09T11:48:01;2.47;;;1.30;;
12224;SDS011;6175;50.956;11.064;2022-09-09T11:50:31;1.67;;;0.93;;
12224;SDS011;6175;50.956;11.064;2022-09-09T11:53:05;2.38;;;1.08;;
12224;SDS011;6175;50.956;11.064;2022-09-09T11:55:46;1.95;;;1.05;;
12224;SDS011;6175;50.956;11.064;2022-09-09T11:58:16;1.45;;;0.90;;
12224;SDS011;6175;50.956;11.064;2022-09-09T12:00:47;3.17;;;1.27;;
12224;SDS011;6175;50.956;11.064;2022-09-09T12:03:34;3.65;;;1.20;;
12224;SDS011;6175;50.956;11.064;2022-09-09T12:06:09;1.95;;;0.70;;
12224;SDS011;6175;50.956;11.064;2022-09-09T12:08:40;2.78;;;0.95;;
12224;SDS011;6175;50.956;11.064;2022-09-09T12:11:10;1.80;;;0.90;;
12224;SDS011;6175;50.956;11.064;2022-09-09T12:13:38;2.00;;;0.90;;
12224;SDS011;6175;50.956;11.064;2022-09-09T12:16:27;2.65;;;0.98;;
12224;SDS011;6175;50.956;11.064;2022-09-09T12:19:06;1.23;;;0.68;;
12224;SDS011;6175;50.956;11.064;2022-09-09T12:21:41;1.83;;;0.68;;
12224;SDS011;6175;50.956;11.064;2022-09-09T12:24:16;1.10;;;0.40;;
12224;SDS011;6175;50.956;11.064;2022-09-09T12:26:49;0.77;;;0.52;;
12224;SDS011;6175;50.956;11.064;2022-09-09T12:29:24;1.23;;;0.80;;
12224;SDS011;6175;50.956;11.064;2022-09-09T12:31:59;0.98;;;0.50;;
12224;SDS011;6175;50.956;11.064;2022-09-09T12:34:36;1.58;;;0.75;;
12224;SDS011;6175;50.956;11.064;2022-09-09T12:37:08;0.70;;;0.50;;
12224;SDS011;6175;50.956;11.064;2022-09-09T12:39:45;2.72;;;0.60;;
12224;SDS011;6175;50.956;11.064;2022-09-09T12:42:18;0.98;;;0.57;;
12224;SDS011;6175;50.956;11.064;2022-09-09T12:44:56;1.25;;;0.50;;
12224;SDS011;6175;50.956;11.064;2022-09-09T12:47:27;1.23;;;0.77;;
12224;SDS011;6175;50.956;11.064;2022-09-09T12:50:01;1.85;;;0.82;;
12224;SDS011;6175;50.956;11.064;2022-09-09T12:52:29;1.20;;;0.75;;
12224;SDS011;6175;50.956;11.064;2022-09-09T12:55:00;1.95;;;0.95;;
12224;SDS011;6175;50.956;11.064;2022-09-09T12:57:31;2.78;;;1.00;;
12224;SDS011;6175;50.956;11.064;2022-09-09T13:00:06;1.40;;;0.70;;
12224;SDS011;6175;50.956;11.064;2022-09-09T13:02:44;1.48;;;0.85;;
12224;SDS011;6175;50.956;11.064;2022-09-09T13:05:14;1.50;;;0.60;;
12224;SDS011;6175;50.956;11.064;2022-09-09T13:07:43;1.23;;;0.90;;
12224;SDS011;6175;50.956;11.064;2022-09-09T13:10:10;2.20;;;1.00;;
12224;SDS011;6175;50.956;11.064;2022-09-09T13:12:38;2.17;;;0.90;;
12224;SDS011;6175;50.956;11.064;2022-09-09T13:15:10;1.65;;;0.95;;
12224;SDS011;6175;50.956;11.064;2022-09-09T13:17:48;2.72;;;0.85;;
12224;SDS011;6175;50.956;11.064;2022-09-09T13:20:17;2.65;;;0.98;;
12224;SDS011;6175;50.956;11.064;2022-09-09T13:22:46;4.10;;;0.90;;
12224;SDS011;6175;50.956;11.064;2022-09-09T13:25:18;2.08;;;0.80;;
12224;SDS011;6175;50.956;11.064;2022-09-09T13:27:57;3.25;;;1.05;;
12224;SDS011;6175;50.956;11.064;2022-09-09T13:30:26;2.38;;;0.65;;
12224;SDS011;6175;50.956;11.064;2022-09-09T13:35:49;0.80;;;0.40;;
12224;SDS011;6175;50.956;11.064;2022-09-09T13:38:18;1.20;;;0.60;;
12224;SDS011;6175;50.956;11.064;2022-09-09T13:40:53;0.80;;;0.50;;
12224;SDS011;6175;50.956;11.064;2022-09-09T13:43:23;2.17;;;0.60;;
12224;SDS011;6175;50.956;11.064;2022-09-09T13:45:54;1.10;;;0.52;;
12224;SDS011;6175;50.956;11.064;2022-09-09T13:48:24;0.88;;;0.50;;
12224;SDS011;6175;50.956;11.064;2022-09-09T13:50:55;1.50;;;0.47;;
12224;SDS011;6175;50.956;11.064;2022-09-09T13:53:24;0.95;;;0.52;;
12224;SDS011;6175;50.956;11.064;2022-09-09T13:55:51;1.30;;;0.30;;
12224;SDS011;6175;50.956;11.064;2022-09-09T13:58:18;0.88;;;0.47;;
12224;SDS011;6175;50.956;11.064;2022-09-09T14:00:46;0.63;;;0.50;;
12224;SDS011;6175;50.956;11.064;2022-09-09T14:03:14;0.88;;;0.50;;
12224;SDS011;6175;50.956;11.064;2022-09-09T14:05:43;1.95;;;0.68;;
12224;SDS011;6175;50.956;11.064;2022-09-09T14:08:12;1.55;;;0.70;;
12224;SDS011;6175;50.956;11.064;2022-09-09T14:10:46;0.70;;;0.60;;
12224;SDS011;6175;50.956;11.064;2022-09-09T14:13:13;0.95;;;0.47;;
12224;SDS011;6175;50.956;11.064;2022-09-09T14:15:40;0.70;;;0.50;;
12224;SDS011;6175;50.956;11.064;2022-09-09T14:18:09;0.63;;;0.50;;
12224;SDS011;6175;50.956;11.064;2022-09-09T14:20:37;1.35;;;0.40;;
12224;SDS011;6175;50.956;11.064;2022-09-09T14:23:07;2.03;;;0.57;;
12224;SDS011;6175;50.956;11.064;2022-09-09T14:25:39;1.25;;;0.45;;
12224;SDS011;6175;50.956;11.064;2022-09-09T14:34:13;1.67;;;0.73;;
12224;SDS011;6175;50.956;11.064;2022-09-09T14:38:52;1.27;;;0.70;;
12224;SDS011;6175;50.956;11.064;2022-09-09T14:41:19;1.85;;;0.80;;
12224;SDS011;6175;50.956;11.064;2022-09-09T14:43:47;3.20;;;0.95;;
12224;SDS011;6175;50.956;11.064;2022-09-09T14:46:15;0.85;;;0.60;;
12224;SDS011;6175;50.956;11.064;2022-09-09T14:48:42;1.05;;;0.70;;
12224;SDS011;6175;50.956;11.064;2022-09-09T14:51:10;1.23;;;0.60;;
12224;SDS011;6175;50.956;11.064;2022-09-09T14:53:39;0.55;;;0.47;;
12224;SDS011;6175;50.956;11.064;2022-09-09T14:56:09;1.25;;;0.80;;
12224;SDS011;6175;50.956;11.064;2022-09-09T14:58:37;1.95;;;0.90;;
12224;SDS011;6175;50.956;11.064;2022-09-09T15:01:06;1.48;;;0.75;;
12224;SDS011;6175;50.956;11.064;2022-09-09T15:03:34;1.92;;;0.70;;
12224;SDS011;6175;50.956;11.064;2022-09-09T15:06:05;1.20;;;0.60;;
12224;SDS011;6175;50.956;11.064;2022-09-09T15:08:33;1.63;;;0.77;;
12224;SDS011;6175;50.956;11.064;2022-09-09T15:11:00;3.30;;;0.95;;
12224;SDS011;6175;50.956;11.064;2022-09-09T15:13:29;0.90;;;0.73;;
12224;SDS011;6175;50.956;11.064;2022-09-09T15:15:55;2.65;;;0.80;;
12224;SDS011;6175;50.956;11.064;2022-09-09T15:18:23;1.80;;;0.90;;
12224;SDS011;6175;50.956;11.064;2022-09-09T15:20:50;2.05;;;0.75;;
12224;SDS011;6175;50.956;11.064;2022-09-09T15:23:18;3.33;;;0.98;;
12224;SDS011;6175;50.956;11.064;2022-09-09T15:25:51;1.58;;;0.80;;
12224;SDS011;6175;50.956;11.064;2022-09-09T15:28:18;1.25;;;0.80;;
12224;SDS011;6175;50.956;11.064;2022-09-09T15:30:48;0.63;;;0.63;;
12224;SDS011;6175;50.956;11.064;2022-09-09T15:33:16;2.47;;;0.82;;
12224;SDS011;6175;50.956;11.064;2022-09-09T15:35:45;1.63;;;0.90;;
12224;SDS011;6175;50.956;11.064;2022-09-09T15:38:12;1.27;;;0.77;;
12224;SDS011;6175;50.956;11.064;2022-09-09T15:40:40;2.40;;;1.08;;
12224;SDS011;6175;50.956;11.064;2022-09-09T15:43:07;1.98;;;0.68;;
12224;SDS011;6175;50.956;11.064;2022-09-09T15:45:35;1.42;;;0.73;;
12224;SDS011;6175;50.956;11.064;2022-09-09T15:48:04;1.63;;;0.68;;
12224;SDS011;6175;50.956;11.064;2022-09-09T15:50:31;3.10;;;0.98;;
12224;SDS011;6175;50.956;11.064;2022-09-09T15:52:58;1.35;;;0.85;;
12224;SDS011;6175;50.956;11.064;2022-09-09T15:55:26;1.48;;;0.60;;
12224;SDS011;6175;50.956;11.064;2022-09-09T15:57:53;1.63;;;0.82;;
12224;SDS011;6175;50.956;11.064;2022-09-09T16:00:20;1.63;;;0.65;;
12224;SDS011;6175;50.956;11.064;2022-09-09T16:02:49;1.02;;;0.70;;
12224;SDS011;6175;50.956;11.064;2022-09-09T16:05:18;2.00;;;0.80;;
12224;SDS011;6175;50.956;11.064;2022-09-09T16:07:45;2.63;;;0.90;;
12224;SDS011;6175;50.956;11.064;2022-09-09T16:10:13;3.03;;;1.05;;
12224;SDS011;6175;50.956;11.064;2022-09-09T16:12:40;2.90;;;0.80;;
12224;SDS011;6175;50.956;11.064;2022-09-09T16:15:07;2.35;;;1.00;;
12224;SDS011;6175;50.956;11.064;2022-09-09T16:17:33;2.35;;;1.00;;
12224;SDS011;6175;50.956;11.064;2022-09-09T16:20:03;1.95;;;1.02;;
12224;SDS011;6175;50.956;11.064;2022-09-09T16:22:34;1.92;;;1.05;;
12224;SDS011;6175;50.956;11.064;2022-09-09T16:25:02;1.83;;;1.08;;
12224;SDS011;6175;50.956;11.064;2022-09-09T16:27:29;2.05;;;0.88;;
12224;SDS011;6175;50.956;11.064;2022-09-09T16:29:56;2.03;;;0.85;;
12224;SDS011;6175;50.956;11.064;2022-09-09T16:32:24;2.40;;;1.10;;
12224;SDS011;6175;50.956;11.064;2022-09-09T16:34:51;2.40;;;1.15;;
12224;SDS011;6175;50.956;11.064;2022-09-09T16:37:18;2.92;;;1.10;;
12224;SDS011;6175;50.956;11.064;2022-09-09T16:39:46;1.58;;;1.00;;
12224;SDS011;6175;50.956;11.064;2022-09-09T16:42:15;2.95;;;1.23;;
12224;SDS011;6175;50.956;11.064;2022-09-09T16:44:42;2.47;;;1.20;;
12224;SDS011;6175;50.956;11.064;2022-09-09T16:47:09;1.83;;;1.00;;
12224;SDS011;6175;50.956;11.064;2022-09-09T16:49:36;2.30;;;0.80;;
12224;SDS011;6175;50.956;11.064;2022-09-09T16:52:03;2.22;;;0.82;;
12224;SDS011;6175;50.956;11.064;2022-09-09T16:54:30;2.72;;;1.10;;
12224;SDS011;6175;50.956;11.064;2022-09-09T16:56:58;2.38;;;0.75;;
12224;SDS011;6175;50.956;11.064;2022-09-09T16:59:25;1.65;;;1.40;;
12224;SDS011;6175;50.956;11.064;2022-09-09T17:01:52;2.60;;;1.42;;
12224;SDS011;6175;50.956;11.064;2022-09-09T17:04:20;2.95;;;1.30;;
12224;SDS011;6175;50.956;11.064;2022-09-09T17:06:50;2.20;;;1.50;;
12224;SDS011;6175;50.956;11.064;2022-09-09T17:09:18;3.47;;;1.48;;
12224;SDS011;6175;50.956;11.064;2022-09-09T17:11:46;2.20;;;1.17;;
12224;SDS011;6175;50.956;11.064;2022-09-09T17:14:18;1.77;;;1.50;;
12224;SDS011;6175;50.956;11.064;2022-09-09T17:16:45;1.33;;;1.08;;
12224;SDS011;6175;50.956;11.064;2022-09-09T17:19:13;2.33;;;1.17;;
12224;SDS011;6175;50.956;11.064;2022-09-09T17:21:40;1.02;;;0.77;;
12224;SDS011;6175;50.956;11.064;2022-09-09T17:24:07;1.42;;;0.90;;
12224;SDS011;6175;50.956;11.064;2022-09-09T17:26:33;2.70;;;0.90;;
12224;SDS011;6175;50.956;11.064;2022-09-09T17:29:03;5.28;;;1.02;;
12224;SDS011;6175;50.956;11.064;2022-09-09T17:31:31;2.60;;;0.93;;
12224;SDS011;6175;50.956;11.064;2022-09-09T17:33:59;1.52;;;0.80;;
12224;SDS011;6175;50.956;11.064;2022-09-09T17:36:27;2.40;;;1.02;;
12224;SDS011;6175;50.956;11.064;2022-09-09T17:38:55;2.78;;;1.40;;
12224;SDS011;6175;50.956;11.064;2022-09-09T17:41:23;2.30;;;1.30;;
12224;SDS011;6175;50.956;11.064;2022-09-09T17:43:51;2.58;;;1.25;;
12224;SDS011;6175;50.956;11.064;2022-09-09T17:46:20;3.38;;;1.23;;
12224;SDS011;6175;50.956;11.064;2022-09-09T17:48:50;2.63;;;1.00;;
12224;SDS011;6175;50.956;11.064;2022-09-09T17:51:20;2.75;;;1.08;;
12224;SDS011;6175;50.956;11.064;2022-09-09T17:53:50;4.35;;;1.25;;
12224;SDS011;6175;50.956;11.064;2022-09-09T17:56:19;1.90;;;0.93;;
12224;SDS011;6175;50.956;11.064;2022-09-09T17:58:47;3.95;;;1.17;;
12224;SDS011;6175;50.956;11.064;2022-09-09T18:01:15;1.88;;;0.88;;
12224;SDS011;6175;50.956;11.064;2022-09-09T18:03:43;2.00;;;1.00;;
12224;SDS011;6175;50.956;11.064;2022-09-09T18:06:14;2.85;;;1.20;;
12224;SDS011;6175;50.956;11.064;2022-09-09T18:08:46;3.05;;;1.08;;
12224;SDS011;6175;50.956;11.064;2022-09-09T18:11:14;2.55;;;1.00;;
12224;SDS011;6175;50.956;11.064;2022-09-09T18:13:41;3.88;;;1.10;;
12224;SDS011;6175;50.956;11.064;2022-09-09T18:16:09;1.85;;;1.00;;
12224;SDS011;6175;50.956;11.064;2022-09-09T18:18:36;1.67;;;1.00;;
12224;SDS011;6175;50.956;11.064;2022-09-09T18:21:04;1.23;;;0.80;;
12224;SDS011;6175;50.956;11.064;2022-09-09T18:23:34;3.00;;;1.02;;
12224;SDS011;6175;50.956;11.064;2022-09-09T18:26:05;1.08;;;0.75;;
12224;SDS011;6175;50.956;11.064;2022-09-09T18:28:35;2.53;;;0.88;;
12224;SDS011;6175;50.956;11.064;2022-09-09T18:31:03;1.80;;;1.10;;
12224;SDS011;6175;50.956;11.064;2022-09-09T18:33:30;4.22;;;1.13;;
12224;SDS011;6175;50.956;11.064;2022-09-09T18:36:02;2.17;;;1.10;;
12224;SDS011;6175;50.956;11.064;2022-09-09T18:38:31;2.30;;;1.05;;
12224;SDS011;6175;50.956;11.064;2022-09-09T18:41:00;1.35;;;1.02;;
12224;SDS011;6175;50.956;11.064;2022-09-09T18:43:37;3.55;;;2.20;;
12224;SDS011;6175;50.956;11.064;2022-09-09T18:46:05;6.03;;;1.95;;
12224;SDS011;6175;50.956;11.064;2022-09-09T18:48:32;2.47;;;1.30;;
12224;SDS011;6175;50.956;11.064;2022-09-09T18:51:00;1.60;;;0.95;;
12224;SDS011;6175;50.956;11.064;2022-09-09T18:53:28;0.95;;;0.70;;
12224;SDS011;6175;50.956;11.064;2022-09-09T18:55:58;1.27;;;0.82;;
12224;SDS011;6175;50.956;11.064;2022-09-09T18:58:28;4.10;;;1.50;;
12224;SDS011;6175;50.956;11.064;2022-09-09T19:00:55;1.20;;;0.60;;
12224;SDS011;6175;50.956;11.064;2022-09-09T19:03:24;1.00;;;0.90;;
12224;SDS011;6175;50.956;11.064;2022-09-09T19:05:52;2.13;;;1.15;;
12224;SDS011;6175;50.956;11.064;2022-09-09T19:08:19;1.80;;;1.20;;
12224;SDS011;6175;50.956;11.064;2022-09-09T19:10:46;1.42;;;1.00;;
12224;SDS011;6175;50.956;11.064;2022-09-09T19:13:15;1.50;;;1.13;;
12224;SDS011;6175;50.956;11.064;2022-09-09T19:15:42;3.30;;;1.02;;
12224;SDS011;6175;50.956;11.064;2022-09-09T19:18:09;3.33;;;1.17;;
12224;SDS011;6175;50.956;11.064;2022-09-09T19:20:36;1.67;;;1.05;;
12224;SDS011;6175;50.956;11.064;2022-09-09T19:23:03;1.55;;;1.00;;
12224;SDS011;6175;50.956;11.064;2022-09-09T19:25:33;1.23;;;0.82;;
12224;SDS011;6175;50.956;11.064;2022-09-09T19:28:01;2.05;;;1.05;;
12224;SDS011;6175;50.956;11.064;2022-09-09T19:30:31;3.55;;;1.77;;
12224;SDS011;6175;50.956;11.064;2022-09-09T19:33:00;2.58;;;1.27;;
12224;SDS011;6175;50.956;11.064;2022-09-09T19:35:28;1.60;;;1.27;;
12224;SDS011;6175;50.956;11.064;2022-09-09T19:37:56;1.42;;;1.27;;
12224;SDS011;6175;50.956;11.064;2022-09-09T19:40:23;1.40;;;0.95;;
12224;SDS011;6175;50.956;11.064;2022-09-09T19:42:50;2.17;;;1.23;;
12224;SDS011;6175;50.956;11.064;2022-09-09T19:45:18;2.58;;;1.30;;
12224;SDS011;6175;50.956;11.064;2022-09-09T19:47:46;3.15;;;1.35;;
12224;SDS011;6175;50.956;11.064;2022-09-09T19:50:13;3.05;;;1.52;;
12224;SDS011;6175;50.956;11.064;2022-09-09T19:52:41;2.40;;;1.30;;
12224;SDS011;6175;50.956;11.064;2022-09-09T19:55:08;2.03;;;1.27;;
12224;SDS011;6175;50.956;11.064;2022-09-09T19:57:36;3.13;;;1.35;;
12224;SDS011;6175;50.956;11.064;2022-09-09T20:00:04;2.72;;;1.08;;
12224;SDS011;6175;50.956;11.064;2022-09-09T20:02:32;1.60;;;0.98;;
12224;SDS011;6175;50.956;11.064;2022-09-09T20:05:01;2.08;;;1.10;;
12224;SDS011;6175;50.956;11.064;2022-09-09T20:07:28;1.70;;;0.93;;
12224;SDS011;6175;50.956;11.064;2022-09-09T20:09:55;2.33;;;1.02;;
12224;SDS011;6175;50.956;11.064;2022-09-09T20:12:22;2.75;;;1.00;;
12224;SDS011;6175;50.956;11.064;2022-09-09T20:14:49;2.45;;;1.08;;
12224;SDS011;6175;50.956;11.064;2022-09-09T20:17:16;2.13;;;0.98;;
12224;SDS011;6175;50.956;11.064;2022-09-09T20:19:43;0.95;;;0.90;;
12224;SDS011;6175;50.956;11.064;2022-09-09T20:22:11;3.08;;;0.90;;
12224;SDS011;6175;50.956;11.064;2022-09-09T20:24:39;1.45;;;0.93;;
12224;SDS011;6175;50.956;11.064;2022-09-09T20:27:08;2.75;;;1.00;;
12224;SDS011;6175;50.956;11.064;2022-09-09T20:29:35;1.85;;;0.98;;
12224;SDS011;6175;50.956;11.064;2022-09-09T20:32:03;1.70;;;1.13;;
12224;SDS011;6175;50.956;11.064;2022-09-09T20:34:31;2.55;;;1.33;;
12224;SDS011;6175;50.956;11.064;2022-09-09T20:36:58;2.38;;;1.10;;
12224;SDS011;6175;50.956;11.064;2022-09-09T20:39:28;2.45;;;1.13;;
12224;SDS011;6175;50.956;11.064;2022-09-09T20:41:54;3.85;;;1.10;;
12224;SDS011;6175;50.956;11.064;2022-09-09T20:44:22;2.40;;;1.42;;
12224;SDS011;6175;50.956;11.064;2022-09-09T20:46:50;1.30;;;0.95;;
12224;SDS011;6175;50.956;11.064;2022-09-09T20:49:19;2.63;;;1.20;;
12224;SDS011;6175;50.956;11.064;2022-09-09T20:51:48;1.67;;;1.17;;
12224;SDS011;6175;50.956;11.064;2022-09-09T20:54:16;1.67;;;0.98;;
12224;SDS011;6175;50.956;11.064;2022-09-09T20:56:46;1.88;;;1.27;;
12224;SDS011;6175;50.956;11.064;2022-09-09T20:59:15;2.38;;;1.05;;
12224;SDS011;6175;50.956;11.064;2022-09-09T21:01:44;1.73;;;0.90;;
12224;SDS011;6175;50.956;11.064;2022-09-09T21:04:12;2.10;;;1.25;;
12224;SDS011;6175;50.956;11.064;2022-09-09T21:06:40;2.50;;;1.15;;
12224;SDS011;6175;50.956;11.064;2022-09-09T21:09:07;1.35;;;1.17;;
12224;SDS011;6175;50.956;11.064;2022-09-09T21:11:34;2.35;;;1.20;;
12224;SDS011;6175;50.956;11.064;2022-09-09T21:14:03;1.33;;;1.10;;
12224;SDS011;6175;50.956;11.064;2022-09-09T21:16:30;2.40;;;1.35;;
12224;SDS011;6175;50.956;11.064;2022-09-09T21:18:57;1.65;;;1.05;;
12224;SDS011;6175;50.956;11.064;2022-09-09T21:21:25;2.20;;;1.00;;
12224;SDS011;6175;50.956;11.064;2022-09-09T21:23:52;2.97;;;1.15;;
12224;SDS011;6175;50.956;11.064;2022-09-09T21:26:20;1.42;;;1.08;;
12224;SDS011;6175;50.956;11.064;2022-09-09T21:28:47;1.55;;;1.02;;
12224;SDS011;6175;50.956;11.064;2022-09-09T21:31:16;1.83;;;0.90;;
12224;SDS011;6175;50.956;11.064;2022-09-09T21:33:44;2.67;;;1.00;;
12224;SDS011;6175;50.956;11.064;2022-09-09T21:36:12;1.38;;;0.82;;
12224;SDS011;6175;50.956;11.064;2022-09-09T21:38:40;2.70;;;1.20;;
12224;SDS011;6175;50.956;11.064;2022-09-09T21:41:08;2.63;;;1.00;;
12224;SDS011;6175;50.956;11.064;2022-09-09T21:43:38;1.70;;;1.10;;
12224;SDS011;6175;50.956;11.064;2022-09-09T21:46:06;2.47;;;0.77;;
12224;SDS011;6175;50.956;11.064;2022-09-09T21:48:35;1.08;;;0.98;;
12224;SDS011;6175;50.956;11.064;2022-09-09T21:51:02;2.03;;;0.93;;
12224;SDS011;6175;50.956;11.064;2022-09-09T21:53:30;2.00;;;1.15;;
12224;SDS011;6175;50.956;11.064;2022-09-09T21:55:59;3.42;;;1.08;;
12224;SDS011;6175;50.956;11.064;2022-09-09T21:58:28;1.63;;;0.90;;
12224;SDS011;6175;50.956;11.064;2022-09-09T22:00:55;2.30;;;1.15;;
12224;SDS011;6175;50.956;11.064;2022-09-09T22:03:22;1.05;;;0.98;;
12224;SDS011;6175;50.956;11.064;2022-09-09T22:05:50;2.58;;;0.95;;
12224;SDS011;6175;50.956;11.064;2022-09-09T22:08:18;1.63;;;1.00;;
12224;SDS011;6175;50.956;11.064;2022-09-09T22:10:45;1.05;;;0.95;;
12224;SDS011;6175;50.956;11.064;2022-09-09T22:13:12;2.20;;;1.10;;
12224;SDS011;6175;50.956;11.064;2022-09-09T22:15:41;2.38;;;0.90;;
12224;SDS011;6175;50.956;11.064;2022-09-09T22:18:08;3.03;;;1.10;;
12224;SDS011;6175;50.956;11.064;2022-09-09T22:20:38;1.35;;;1.02;;
12224;SDS011;6175;50.956;11.064;2022-09-09T22:23:07;2.00;;;1.00;;
12224;SDS011;6175;50.956;11.064;2022-09-09T22:25:35;1.50;;;0.90;;
12224;SDS011;6175;50.956;11.064;2022-09-09T22:28:02;1.80;;;0.90;;
12224;SDS011;6175;50.956;11.064;2022-09-09T22:30:29;2.80;;;1.23;;
12224;SDS011;6175;50.956;11.064;2022-09-09T22:32:56;3.58;;;1.10;;
12224;SDS011;6175;50.956;11.064;2022-09-09T22:35:25;3.22;;;1.27;;
12224;SDS011;6175;50.956;11.064;2022-09-09T22:37:53;0.93;;;0.80;;
12224;SDS011;6175;50.956;11.064;2022-09-09T22:40:22;2.03;;;1.38;;
12224;SDS011;6175;50.956;11.064;2022-09-09T22:42:50;2.03;;;0.77;;
12224;SDS011;6175;50.956;11.064;2022-09-09T22:45:17;2.58;;;1.20;;